Time;durP1;ratioP1;P1;durP2;ratioP2;P2;SDS_P1;SDS_P2;PMS_P1;PMS_P2;Temp;Humidity;BMP_temperature;BMP_pressure;BME280_temperature;BME280_humidity;BME280_pressure;Samples;Min_cycle;Max_cycle;Signal;HPM_P1;HPM_P2
2021/05/30 00:00:14;;;;;;;6.93;3.08;;;19.10;84.30;;;;;;5059484;28;20115;-75
2021/05/30 00:02:40;;;;;;;5.20;2.75;;;19.10;84.70;;;;;;5062512;28;20040;-75
2021/05/30 00:05:07;;;;;;;4.82;3.03;;;19.00;84.70;;;;;;5060597;28;20033;-77
2021/05/30 00:07:34;;;;;;;6.07;2.90;;;19.00;85.40;;;;;;5059695;28;20025;-76
2021/05/30 00:09:59;;;;;;;4.93;2.80;;;18.90;85.50;;;;;;5059698;28;20048;-73
2021/05/30 00:12:25;;;;;;;5.63;3.05;;;18.90;85.70;;;;;;5058170;28;20120;-76
2021/05/30 00:14:51;;;;;;;5.68;3.35;;;18.90;86.00;;;;;;5060550;28;20099;-76
2021/05/30 00:17:17;;;;;;;4.35;2.80;;;18.80;86.70;;;;;;5058911;28;20029;-75
2021/05/30 00:19:43;;;;;;;5.38;3.22;;;18.80;86.80;;;;;;5053840;28;20024;-74
2021/05/30 00:22:09;;;;;;;5.15;3.33;;;18.80;86.70;;;;;;5069032;28;20094;-74
2021/05/30 00:24:35;;;;;;;4.32;2.85;;;18.80;86.70;;;;;;5070702;28;20078;-82
2021/05/30 00:27:01;;;;;;;7.80;3.20;;;18.80;87.20;;;;;;5069858;28;20032;-81
2021/05/30 00:29:27;;;;;;;5.40;3.13;;;18.80;87.60;;;;;;5068198;28;20028;-77
2021/05/30 00:31:53;;;;;;;6.03;3.08;;;18.90;87.60;;;;;;5071344;28;20028;-75
2021/05/30 00:34:19;;;;;;;6.18;3.38;;;18.90;88.00;;;;;;5073748;28;20043;-76
2021/05/30 00:36:45;;;;;;;7.00;3.00;;;18.90;88.00;;;;;;5073430;28;20410;-76
2021/05/30 00:39:10;;;;;;;5.95;3.63;;;18.90;87.90;;;;;;5074541;28;20036;-78
2021/05/30 00:41:36;;;;;;;5.03;2.80;;;18.90;88.00;;;;;;5074162;28;20021;-76
2021/05/30 00:44:17;;;;;;;6.18;3.10;;;18.70;88.80;;;;;;5074232;28;20085;-78
2021/05/30 00:46:43;;;;;;;6.90;3.25;;;18.70;88.40;;;;;;5073854;28;20048;-79
2021/05/30 00:49:08;;;;;;;5.50;3.03;;;18.60;88.80;;;;;;5074454;28;20017;-76
2021/05/30 00:51:34;;;;;;;4.78;2.97;;;18.60;89.10;;;;;;5073942;28;20063;-81
2021/05/30 00:54:00;;;;;;;6.45;3.35;;;18.50;89.90;;;;;;5073996;28;20120;-75
2021/05/30 00:56:26;;;;;;;6.30;3.00;;;18.50;89.30;;;;;;5073876;28;20443;-75
2021/05/30 00:58:51;;;;;;;56.80;37.10;;;18.30;89.00;;;;;;5073838;28;20024;-77
2021/05/30 01:01:17;;;;;;;114.40;67.57;;;18.50;90.00;;;;;;5078005;28;20429;-77
2021/05/30 01:03:43;;;;;;;63.30;36.90;;;18.60;89.80;;;;;;5094297;28;20479;-77
2021/05/30 01:06:10;;;;;;;14.00;8.98;;;18.60;88.70;;;;;;5093485;28;20062;-76
2021/05/30 01:08:36;;;;;;;8.77;5.13;;;18.40;88.40;;;;;;5094037;28;20027;-76
2021/05/30 01:11:03;;;;;;;7.43;3.30;;;18.40;88.90;;;;;;5092787;28;20028;-74
2021/05/30 01:13:28;;;;;;;5.20;3.20;;;18.30;90.00;;;;;;5093655;28;20021;-78
2021/05/30 01:15:55;;;;;;;5.15;3.00;;;18.30;90.30;;;;;;5092610;28;20065;-74
2021/05/30 01:18:23;;;;;;;6.35;3.60;;;18.40;89.80;;;;;;5093995;28;20036;-77
2021/05/30 01:20:50;;;;;;;9.05;3.92;;;18.40;89.00;;;;;;5093738;28;20020;-76
2021/05/30 01:23:18;;;;;;;6.50;3.83;;;18.40;87.50;;;;;;5093786;28;20020;-77
2021/05/30 01:25:47;;;;;;;8.57;3.72;;;18.40;89.90;;;;;;5093189;28;20032;-75
2021/05/30 01:28:14;;;;;;;7.20;3.08;;;18.40;89.70;;;;;;5093495;28;20024;-76
2021/05/30 01:30:41;;;;;;;8.73;3.85;;;18.40;90.30;;;;;;5093849;28;20029;-79
2021/05/30 01:33:07;;;;;;;7.13;3.55;;;18.10;90.80;;;;;;5093688;28;20028;-77
2021/05/30 01:35:33;;;;;;;6.85;2.95;;;17.60;92.20;;;;;;5080415;28;20054;-75
2021/05/30 01:37:59;;;;;;;8.90;3.20;;;17.80;92.00;;;;;;5073626;28;20029;-77
2021/05/30 01:40:26;;;;;;;6.82;3.30;;;17.90;92.00;;;;;;5073133;28;20032;-84
2021/05/30 01:42:55;;;;;;;7.25;3.50;;;18.00;91.40;;;;;;5073333;28;20024;-81
2021/05/30 01:45:22;;;;;;;6.28;3.40;;;18.00;91.10;;;;;;5072851;28;20052;-77
2021/05/30 01:47:48;;;;;;;8.18;3.80;;;18.20;90.70;;;;;;5073404;28;20422;-75
2021/05/30 01:50:16;;;;;;;8.25;4.40;;;17.90;90.40;;;;;;5073171;28;20037;-76
2021/05/30 01:52:42;;;;;;;6.35;3.38;;;17.70;91.20;;;;;;5073507;28;20246;-75
2021/05/30 01:58:03;;;;;;;5.40;3.00;;;17.90;90.90;;;;;;5080124;28;20024;-76
2021/05/30 02:00:29;;;;;;;5.82;3.22;;;17.90;91.20;;;;;;5073353;28;20103;-76
2021/05/30 02:02:56;;;;;;;7.13;3.33;;;17.80;91.80;;;;;;5087483;28;20056;-74
2021/05/30 02:05:23;;;;;;;13.07;3.75;;;17.90;92.90;;;;;;5092845;28;20028;-75
2021/05/30 02:07:50;;;;;;;6.53;3.72;;;18.10;93.50;;;;;;5093354;28;20020;-74
2021/05/30 02:10:17;;;;;;;6.10;3.60;;;17.80;92.30;;;;;;5091356;28;20024;-75
2021/05/30 02:12:47;;;;;;;5.30;3.38;;;17.60;92.70;;;;;;5093307;28;20466;-75
2021/05/30 02:15:14;;;;;;;7.00;2.90;;;17.70;92.40;;;;;;5093176;28;20367;-74
2021/05/30 02:17:40;;;;;;;4.97;2.97;;;17.40;92.30;;;;;;5092904;28;20028;-74
2021/05/30 02:20:07;;;;;;;5.50;3.20;;;17.60;91.90;;;;;;5092804;28;20103;-76
2021/05/30 02:22:33;;;;;;;7.03;3.58;;;17.60;91.90;;;;;;5091913;28;20024;-77
2021/05/30 02:24:59;;;;;;;6.50;3.20;;;17.50;92.00;;;;;;5092003;28;20039;-74
2021/05/30 02:27:25;;;;;;;5.85;2.95;;;17.30;92.50;;;;;;5093041;28;20582;-78
2021/05/30 02:29:51;;;;;;;6.13;3.20;;;17.20;92.60;;;;;;5092797;28;20040;-76
2021/05/30 02:32:18;;;;;;;6.57;3.45;;;17.20;92.50;;;;;;5092831;28;20095;-74
2021/05/30 02:34:44;;;;;;;5.18;3.20;;;17.20;92.60;;;;;;5092346;28;20047;-78
2021/05/30 02:37:12;;;;;;;5.18;3.47;;;17.20;92.70;;;;;;5092624;28;20028;-75
2021/05/30 02:39:38;;;;;;;5.38;3.17;;;17.20;92.80;;;;;;5091028;28;20020;-76
2021/05/30 02:42:04;;;;;;;6.00;3.50;;;17.30;93.10;;;;;;5092329;28;20028;-76
2021/05/30 02:44:30;;;;;;;7.22;3.53;;;17.50;92.60;;;;;;5090775;28;20428;-75
2021/05/30 02:46:56;;;;;;;6.45;3.20;;;17.60;92.50;;;;;;5092337;28;20514;-75
2021/05/30 02:49:24;;;;;;;6.10;3.25;;;17.50;92.60;;;;;;5092251;28;20043;-74
2021/05/30 02:51:53;;;;;;;7.88;3.38;;;17.40;92.70;;;;;;5092163;28;20375;-75
2021/05/30 02:54:19;;;;;;;6.50;3.60;;;17.40;92.80;;;;;;5091693;28;20016;-76
2021/05/30 02:56:45;;;;;;;4.60;3.08;;;17.50;92.70;;;;;;5090621;28;20027;-76
2021/05/30 02:59:11;;;;;;;6.35;3.28;;;17.20;93.50;;;;;;5092405;28;20040;-77
2021/05/30 03:01:37;;;;;;;5.70;3.42;;;17.00;93.90;;;;;;5088662;28;20025;-76
2021/05/30 03:04:04;;;;;;;5.18;3.33;;;17.00;94.10;;;;;;5070428;28;20021;-74
2021/05/30 03:06:29;;;;;;;5.80;3.17;;;16.90;94.40;;;;;;5071763;28;20419;-74
2021/05/30 03:08:55;;;;;;;6.00;3.22;;;17.10;94.30;;;;;;5071830;28;20502;-76
2021/05/30 03:11:22;;;;;;;5.30;3.47;;;17.10;94.10;;;;;;5071692;28;20442;-74
2021/05/30 03:13:51;;;;;;;5.90;3.28;;;16.90;94.60;;;;;;5072029;28;20046;-74
2021/05/30 03:16:17;;;;;;;5.10;3.33;;;16.90;94.80;;;;;;5071691;28;20081;-75
2021/05/30 03:18:43;;;;;;;4.82;3.42;;;16.90;94.80;;;;;;5071649;28;20056;-75
2021/05/30 03:21:09;;;;;;;6.35;3.70;;;16.90;94.60;;;;;;5070348;28;20388;-81
2021/05/30 03:23:35;;;;;;;5.72;3.78;;;16.80;94.90;;;;;;5071418;28;20460;-75
2021/05/30 03:26:00;;;;;;;5.10;3.25;;;16.80;94.70;;;;;;5071484;28;20472;-74
2021/05/30 03:28:26;;;;;;;5.53;3.33;;;16.90;94.90;;;;;;5071544;28;20399;-74
2021/05/30 03:30:52;;;;;;;6.35;3.28;;;16.80;94.80;;;;;;5071812;28;20035;-75
2021/05/30 03:33:18;;;;;;;5.30;3.10;;;16.80;95.20;;;;;;5071644;28;20425;-80
2021/05/30 03:35:45;;;;;;;5.90;3.08;;;16.80;95.40;;;;;;5071106;28;20063;-77
2021/05/30 03:38:14;;;;;;;5.43;3.10;;;16.70;95.40;;;;;;5070275;28;20024;-78
2021/05/30 03:40:59;;;;;;;5.88;3.60;;;16.90;95.10;;;;;;5071574;28;20027;-76
2021/05/30 03:43:25;;;;;;;8.20;3.72;;;16.80;95.00;;;;;;5071540;28;20375;-74
2021/05/30 03:45:51;;;;;;;4.32;3.05;;;16.90;95.00;;;;;;5070845;28;20049;-75
2021/05/30 03:48:17;;;;;;;4.32;3.00;;;16.80;95.10;;;;;;5071379;28;20025;-77
2021/05/30 03:50:42;;;;;;;5.97;3.55;;;16.70;95.00;;;;;;5071206;28;20467;-76
2021/05/30 03:53:08;;;;;;;6.50;3.35;;;16.90;95.20;;;;;;5071518;28;20031;-82
2021/05/30 03:55:34;;;;;;;4.97;3.38;;;17.00;95.00;;;;;;5069728;28;20028;-74
2021/05/30 03:58:00;;;;;;;5.07;3.40;;;16.90;95.40;;;;;;5070627;28;20659;-75
2021/05/30 04:00:26;;;;;;;5.22;3.30;;;17.20;95.00;;;;;;5071534;28;20032;-76
2021/05/30 04:02:52;;;;;;;5.75;3.22;;;17.10;95.20;;;;;;5083507;28;20035;-77
2021/05/30 04:05:18;;;;;;;5.47;3.40;;;17.10;94.80;;;;;;5091053;28;20024;-78
2021/05/30 04:07:44;;;;;;;4.85;3.30;;;17.10;95.00;;;;;;5094560;28;20036;-76
2021/05/30 04:10:11;;;;;;;6.43;2.90;;;17.20;95.10;;;;;;5093392;28;20035;-76
2021/05/30 04:12:40;;;;;;;6.28;3.75;;;17.20;94.80;;;;;;5095064;28;20032;-77
2021/05/30 04:15:08;;;;;;;4.40;3.17;;;17.10;95.10;;;;;;5095356;28;20463;-77
2021/05/30 04:17:34;;;;;;;5.22;3.10;;;17.10;95.20;;;;;;5094036;28;20066;-80
2021/05/30 04:20:00;;;;;;;5.45;3.28;;;17.10;95.30;;;;;;5094954;28;20052;-78
2021/05/30 04:22:26;;;;;;;5.88;3.10;;;17.00;95.20;;;;;;5093837;28;20024;-76
2021/05/30 04:24:52;;;;;;;5.20;3.22;;;17.00;95.40;;;;;;5095063;28;20028;-76
2021/05/30 04:27:18;;;;;;;5.35;2.92;;;17.10;95.50;;;;;;5094908;28;20024;-74
2021/05/30 04:29:44;;;;;;;6.82;2.85;;;17.30;95.20;;;;;;5095429;28;20040;-74
2021/05/30 04:32:10;;;;;;;6.20;3.45;;;17.70;94.80;;;;;;5094939;28;20517;-77
2021/05/30 04:34:35;;;;;;;4.57;3.08;;;17.50;94.40;;;;;;5094964;28;20024;-79
2021/05/30 04:37:01;;;;;;;7.03;3.40;;;17.30;95.10;;;;;;5094834;28;20395;-77
2021/05/30 04:39:31;;;;;;;5.97;3.08;;;17.10;95.50;;;;;;5095001;28;20464;-77
2021/05/30 04:41:57;;;;;;;4.68;2.85;;;17.40;95.30;;;;;;5094598;28;20145;-76
2021/05/30 04:44:22;;;;;;;5.97;2.78;;;17.40;95.30;;;;;;5093457;28;20039;-76
2021/05/30 04:46:48;;;;;;;7.13;3.22;;;17.30;95.00;;;;;;5094848;28;20028;-73
2021/05/30 04:49:14;;;;;;;5.25;3.28;;;17.40;95.20;;;;;;5095380;28;20030;-74
2021/05/30 04:51:40;;;;;;;6.47;2.90;;;17.40;95.00;;;;;;5095041;28;20039;-73
2021/05/30 04:54:06;;;;;;;5.93;3.50;;;17.50;94.90;;;;;;5095249;28;20024;-81
2021/05/30 04:56:32;;;;;;;5.35;2.95;;;17.50;95.10;;;;;;5094398;28;20039;-75
2021/05/30 04:58:58;;;;;;;4.88;3.28;;;17.50;94.90;;;;;;5094648;28;20111;-75
2021/05/30 05:01:23;;;;;;;7.97;3.30;;;17.70;95.10;;;;;;5094393;28;20423;-76
2021/05/30 05:03:51;;;;;;;5.63;3.05;;;17.70;94.90;;;;;;5075709;28;20028;-76
2021/05/30 05:06:16;;;;;;;6.35;3.67;;;17.70;94.80;;;;;;5072494;28;20029;-77
2021/05/30 05:08:42;;;;;;;7.05;2.75;;;18.00;94.10;;;;;;5072800;28;20134;-79
2021/05/30 05:11:09;;;;;;;9.00;3.70;;;18.10;94.30;;;;;;5074308;28;20052;-77
2021/05/30 05:13:36;;;;;;;4.10;3.10;;;18.30;94.10;;;;;;5072453;28;20024;-76
2021/05/30 05:16:02;;;;;;;6.85;3.33;;;18.50;94.20;;;;;;5074458;28;20037;-76
2021/05/30 05:18:30;;;;;;;5.45;3.10;;;18.60;93.80;;;;;;5072163;28;20020;-78
2021/05/30 05:20:57;;;;;;;4.78;2.85;;;18.60;93.80;;;;;;5073792;28;20420;-86
2021/05/30 05:23:24;;;;;;;5.22;2.97;;;18.60;94.10;;;;;;5073689;28;20054;-79
2021/05/30 05:25:52;;;;;;;6.32;2.97;;;18.50;95.20;;;;;;5073763;28;20471;-77
2021/05/30 05:28:18;;;;;;;5.85;3.10;;;18.40;94.10;;;;;;5073472;28;20394;-76
2021/05/30 05:30:45;;;;;;;7.28;3.40;;;17.90;93.40;;;;;;5073855;28;20429;-85
2021/05/30 05:33:10;;;;;;;5.60;2.83;;;17.50;94.20;;;;;;5073585;28;20038;-77
2021/05/30 05:35:36;;;;;;;4.18;2.92;;;17.80;94.30;;;;;;5072021;28;20028;-78
2021/05/30 05:38:02;;;;;;;4.80;2.65;;;17.70;94.40;;;;;;5073429;28;20025;-79
2021/05/30 05:40:29;;;;;;;4.15;2.50;;;18.00;94.40;;;;;;5073626;28;20364;-83
2021/05/30 05:42:56;;;;;;;5.03;2.65;;;18.40;93.70;;;;;;5073282;28;20410;-85
2021/05/30 05:45:23;;;;;;;5.63;2.70;;;18.40;93.10;;;;;;5073386;28;20048;-80
2021/05/30 05:47:53;;;;;;;6.78;3.00;;;18.60;93.20;;;;;;5072030;28;20020;-79
2021/05/30 05:50:21;;;;;;;4.97;2.80;;;18.00;93.00;;;;;;5072835;28;20104;-79
2021/05/30 05:52:48;;;;;;;6.60;3.10;;;17.70;94.20;;;;;;5073492;28;20463;-76
2021/05/30 05:55:14;;;;;;;5.05;2.70;;;18.00;93.90;;;;;;5073434;28;20089;-75
2021/05/30 05:57:42;;;;;;;5.50;2.88;;;18.00;93.70;;;;;;5073403;28;20020;-78
2021/05/30 06:00:13;;;;;;;4.60;2.72;;;18.10;93.70;;;;;;5073429;28;20033;-77
2021/05/30 06:02:39;;;;;;;5.57;3.08;;;17.90;94.10;;;;;;5080250;28;20047;-76
2021/05/30 06:05:06;;;;;;;4.38;2.80;;;17.70;94.30;;;;;;5093033;28;20067;-76
2021/05/30 06:07:33;;;;;;;6.90;3.17;;;17.70;94.40;;;;;;5093210;28;20047;-77
2021/05/30 06:09:59;;;;;;;6.22;2.80;;;17.70;94.90;;;;;;5093091;28;20048;-84
2021/05/30 06:12:25;;;;;;;5.72;2.90;;;17.80;94.90;;;;;;5092914;28;20075;-77
2021/05/30 06:14:50;;;;;;;4.63;2.63;;;17.80;95.10;;;;;;5093163;28;20434;-74
2021/05/30 06:17:16;;;;;;;6.47;3.38;;;17.80;95.20;;;;;;5092814;28;20047;-77
2021/05/30 06:19:42;;;;;;;5.53;3.00;;;17.40;95.50;;;;;;5092820;28;20021;-76
2021/05/30 06:22:08;;;;;;;6.95;3.05;;;17.40;95.60;;;;;;5092766;28;20440;-78
2021/05/30 06:24:35;;;;;;;4.32;3.00;;;17.50;95.60;;;;;;5092876;28;20028;-79
2021/05/30 06:27:03;;;;;;;7.47;3.15;;;17.70;95.60;;;;;;5091652;28;20032;-76
2021/05/30 06:29:29;;;;;;;5.55;2.90;;;17.70;95.80;;;;;;5090257;28;20028;-77
2021/05/30 06:31:55;;;;;;;6.75;3.08;;;17.40;95.40;;;;;;5091483;28;20394;-78
2021/05/30 06:34:21;;;;;;;4.32;2.83;;;17.50;95.60;;;;;;5092649;28;20091;-78
2021/05/30 06:36:49;;;;;;;6.35;3.10;;;17.50;95.80;;;;;;5092355;28;20048;-78
2021/05/30 06:39:16;;;;;;;7.68;3.63;;;17.40;95.60;;;;;;5092638;28;20016;-75
2021/05/30 06:41:41;;;;;;;6.30;3.20;;;17.70;95.80;;;;;;5092615;28;20031;-76
2021/05/30 06:44:07;;;;;;;5.30;2.90;;;17.40;95.90;;;;;;5092262;28;20024;-77
2021/05/30 06:46:34;;;;;;;4.53;2.90;;;17.40;95.60;;;;;;5092596;28;20087;-78
2021/05/30 06:49:00;;;;;;;6.68;3.28;;;17.30;96.10;;;;;;5090852;28;20089;-75
2021/05/30 06:51:30;;;;;;;4.72;3.03;;;17.50;95.90;;;;;;5091961;28;20024;-76
2021/05/30 06:53:57;;;;;;;7.30;3.20;;;17.70;95.50;;;;;;5092414;28;20429;-76
2021/05/30 06:56:23;;;;;;;6.85;2.97;;;17.90;95.30;;;;;;5092528;28;20429;-76
2021/05/30 06:58:49;;;;;;;9.00;3.10;;;18.00;94.90;;;;;;5092155;28;20024;-74
2021/05/30 07:01:19;;;;;;;5.18;2.80;;;18.10;95.10;;;;;;5092587;28;20047;-77
2021/05/30 07:03:47;;;;;;;7.28;4.10;;;18.00;94.70;;;;;;5077155;28;20025;-77
2021/05/30 07:06:13;;;;;;;4.70;3.00;;;18.10;94.30;;;;;;5071742;28;20081;-81
2021/05/30 07:08:39;;;;;;;4.45;2.90;;;18.00;95.00;;;;;;5071539;28;20376;-74
2021/05/30 07:11:05;;;;;;;6.38;2.95;;;18.20;94.40;;;;;;5071759;28;20468;-78
2021/05/30 07:13:31;;;;;;;4.75;3.30;;;18.20;94.40;;;;;;5071396;28;20099;-75
2021/05/30 07:15:57;;;;;;;4.68;2.70;;;18.40;94.20;;;;;;5070607;28;20084;-73
2021/05/30 07:18:23;;;;;;;6.22;3.17;;;18.40;93.80;;;;;;5056839;28;20387;-79
2021/05/30 07:20:51;;;;;;;4.72;2.97;;;18.50;93.20;;;;;;5069924;28;20025;-76
2021/05/30 07:23:18;;;;;;;5.88;2.60;;;18.40;92.90;;;;;;5070337;28;20074;-77
2021/05/30 07:25:44;;;;;;;4.65;2.70;;;18.30;93.00;;;;;;5071421;28;20033;-74
2021/05/30 07:28:10;;;;;;;5.35;2.60;;;18.20;93.10;;;;;;5070445;28;20025;-78
2021/05/30 07:30:36;;;;;;;7.68;3.97;;;18.60;92.90;;;;;;5071310;28;20043;-74
2021/05/30 07:33:12;;;;;;;4.35;2.55;;;18.20;92.80;;;;;;5070508;28;20029;-79
2021/05/30 07:35:38;;;;;;;5.97;2.70;;;18.20;92.40;;;;;;5070021;28;20031;-76
2021/05/30 07:38:06;;;;;;;5.65;2.45;;;18.40;92.20;;;;;;5071351;28;20025;-84
2021/05/30 07:40:33;;;;;;;4.60;2.80;;;18.60;91.80;;;;;;5071474;28;20025;-76
2021/05/30 07:42:59;;;;;;;5.60;2.40;;;18.20;91.90;;;;;;5071244;28;20025;-75
2021/05/30 07:45:31;;;;;;;4.53;2.53;;;18.10;92.20;;;;;;5070731;28;20065;-74
2021/05/30 07:47:57;;;;;;;4.05;2.53;;;18.30;92.20;;;;;;5069838;28;20482;-76
2021/05/30 07:50:27;;;;;;;5.82;2.75;;;18.40;92.30;;;;;;5070903;28;20124;-75
2021/05/30 07:53:05;;;;;;;6.20;2.58;;;18.50;92.10;;;;;;5070070;28;20021;-75
2021/05/30 07:55:41;;;;;;;6.72;2.65;;;18.60;91.80;;;;;;5069306;28;20032;-76
2021/05/30 07:58:15;;;;;;;5.28;2.58;;;18.60;91.80;;;;;;5071111;28;20021;-75
2021/05/30 08:00:42;;;;;;;5.55;2.53;;;18.70;91.40;;;;;;5070714;28;20361;-76
2021/05/30 08:03:07;;;;;;;4.93;2.80;;;18.80;91.90;;;;;;5078832;28;20111;-76
2021/05/30 08:05:33;;;;;;;5.10;2.70;;;19.10;91.60;;;;;;5091161;28;20123;-79
2021/05/30 08:07:59;;;;;;;4.55;2.60;;;19.10;91.00;;;;;;5090713;28;20039;-80
2021/05/30 08:10:27;;;;;;;4.25;2.63;;;18.90;90.80;;;;;;5090949;28;20054;-81
2021/05/30 08:12:53;;;;;;;5.10;2.45;;;19.20;90.70;;;;;;5091233;28;20098;-79
2021/05/30 08:15:19;;;;;;;11.80;7.50;;;19.70;90.90;;;;;;5090359;28;20031;-75
2021/05/30 08:17:46;;;;;;;17.45;10.80;;;20.10;88.50;;;;;;5091305;28;20028;-75
2021/05/30 08:20:14;;;;;;;6.40;3.53;;;19.80;88.60;;;;;;5091133;28;20455;-75
2021/05/30 08:22:40;;;;;;;6.18;3.22;;;19.90;89.20;;;;;;5090910;28;20030;-82
2021/05/30 08:25:07;;;;;;;5.88;3.13;;;20.40;87.30;;;;;;5090498;28;20024;-76
2021/05/30 08:27:33;;;;;;;6.25;2.92;;;20.70;86.30;;;;;;5090853;28;20077;-75
2021/05/30 08:29:59;;;;;;;5.15;2.97;;;20.80;85.40;;;;;;5089939;28;20028;-73
2021/05/30 08:32:25;;;;;;;6.13;3.10;;;21.10;85.50;;;;;;5080853;28;20360;-74
2021/05/30 08:34:51;;;;;;;4.78;2.53;;;21.30;85.30;;;;;;5069995;28;20035;-73
2021/05/30 08:37:18;;;;;;;4.28;2.55;;;21.40;84.60;;;;;;5070709;28;20120;-74
2021/05/30 08:39:49;;;;;;;3.88;2.40;;;21.40;83.70;;;;;;5070412;28;20090;-76
2021/05/30 08:42:19;;;;;;;5.18;3.15;;;21.30;83.50;;;;;;5070604;28;20028;-75
2021/05/30 08:44:46;;;;;;;7.57;2.78;;;21.30;83.50;;;;;;5070531;28;20045;-80
2021/05/30 08:47:12;;;;;;;4.43;2.45;;;21.30;82.60;;;;;;5070226;28;20375;-77
2021/05/30 08:49:37;;;;;;;4.80;2.65;;;21.40;83.20;;;;;;5083506;28;20464;-86
2021/05/30 08:52:04;;;;;;;3.75;2.30;;;21.20;83.80;;;;;;5111375;28;20102;-75
2021/05/30 08:54:31;;;;;;;6.57;3.10;;;21.20;83.00;;;;;;5114555;28;20015;-75
2021/05/30 08:56:56;;;;;;;12.23;7.60;;;21.20;83.20;;;;;;5114247;28;20027;-74
2021/05/30 08:59:37;;;;;;;29.17;21.13;;;21.40;82.70;;;;;;5114763;28;20023;-73
2021/05/30 09:02:10;;;;;;;14.70;9.35;;;21.10;80.00;;;;;;5112728;28;20053;-76
2021/05/30 09:04:38;;;;;;;14.23;10.48;;;21.30;80.20;;;;;;5094575;28;20132;-77
2021/05/30 09:07:05;;;;;;;17.70;11.23;;;21.40;79.40;;;;;;5094112;28;20031;-75
2021/05/30 09:09:45;;;;;;;38.75;25.75;;;21.80;79.50;;;;;;5113855;28;20023;-76
2021/05/30 09:12:42;;;;;;;38.50;27.25;;;21.90;78.50;;;;;;5110430;28;20183;-74
2021/05/30 09:18:42;;;;;;;5.28;2.60;;;21.60;73.90;;;;;;5030951;28;20022;-73
2021/05/30 09:21:09;;;;;;;4.78;2.58;;;21.40;75.40;;;;;;5011309;28;20088;-75
2021/05/30 09:23:44;;;;;;;3.83;2.10;;;21.20;75.50;;;;;;5031035;28;20060;-76
2021/05/30 09:26:18;;;;;;;4.28;2.40;;;20.80;75.00;;;;;;5044146;28;20052;-76
2021/05/30 09:29:09;;;;;;;6.05;3.00;;;20.70;77.70;;;;;;5111595;28;20049;-76
2021/05/30 09:32:03;;;;;;;6.00;2.28;;;20.80;78.30;;;;;;5111935;28;20026;-75
2021/05/30 09:34:34;;;;;;;7.35;3.28;;;20.80;79.40;;;;;;5113438;28;20038;-75
2021/05/30 09:37:00;;;;;;;5.05;2.70;;;20.80;80.60;;;;;;5113522;28;20431;-77
2021/05/30 09:39:36;;;;;;;5.35;2.67;;;20.30;82.30;;;;;;5113831;28;20130;-75
2021/05/30 09:42:38;;;;;;;5.13;2.72;;;20.00;82.60;;;;;;5113409;28;20055;-78
2021/05/30 09:45:08;;;;;;;5.40;2.40;;;19.70;85.50;;;;;;5104451;28;20067;-79
2021/05/30 09:47:41;;;;;;;4.43;2.57;;;19.60;85.70;;;;;;5090825;28;20028;-74
2021/05/30 09:50:10;;;;;;;6.82;3.53;;;19.90;84.90;;;;;;5091124;28;20641;-75
2021/05/30 09:52:47;;;;;;;6.30;2.50;;;19.80;84.30;;;;;;5092451;28;20348;-78
2021/05/30 09:55:27;;;;;;;6.15;2.88;;;19.60;83.90;;;;;;5093200;28;20055;-77
2021/05/30 09:58:19;;;;;;;4.13;2.63;;;19.20;85.80;;;;;;5093162;28;20020;-78
2021/05/30 10:01:01;;;;;;;9.00;2.85;;;19.60;85.30;;;;;;5087986;28;20533;-80
2021/05/30 10:03:27;;;;;;;6.20;3.05;;;19.70;84.80;;;;;;5092773;28;20035;-80
2021/05/30 10:05:54;;;;;;;5.75;2.80;;;19.50;85.50;;;;;;5074471;28;20059;-74
2021/05/30 10:08:22;;;;;;;4.47;2.80;;;19.50;85.80;;;;;;5092477;28;20417;-76
2021/05/30 10:10:48;;;;;;;4.53;2.40;;;19.60;86.10;;;;;;5093205;28;20073;-81
2021/05/30 10:13:15;;;;;;;13.93;7.60;;;19.40;84.70;;;;;;5093210;28;20100;-80
2021/05/30 10:16:01;;;;;;;10.82;6.50;;;19.20;85.70;;;;;;5077241;28;20532;-79
2021/05/30 10:18:38;;;;;;;11.73;7.32;;;19.10;86.50;;;;;;5073903;28;20032;-77
2021/05/30 10:21:05;;;;;;;11.95;6.93;;;19.10;87.70;;;;;;5074162;28;20028;-77
2021/05/30 10:23:34;;;;;;;5.32;3.38;;;19.30;86.80;;;;;;5092657;28;20475;-83
2021/05/30 10:26:23;;;;;;;6.70;2.97;;;19.10;87.20;;;;;;5092454;28;20222;-80
2021/05/30 10:28:58;;;;;;;4.55;2.50;;;19.20;86.50;;;;;;5092652;28;20047;-78
2021/05/30 10:31:33;;;;;;;7.85;3.00;;;18.60;90.00;;;;;;5091919;28;20028;-75
2021/05/30 10:34:13;;;;;;;4.53;2.65;;;18.50;91.00;;;;;;5092421;28;20042;-76
2021/05/30 10:36:43;;;;;;;5.32;3.55;;;18.50;91.40;;;;;;5091919;28;20450;-80
2021/05/30 10:39:35;;;;;;;4.75;3.10;;;18.60;92.10;;;;;;5092401;28;20425;-76
2021/05/30 10:42:21;;;;;;;4.68;3.15;;;18.00;93.60;;;;;;5086789;28;20044;-77
2021/05/30 10:44:58;;;;;;;6.47;3.20;;;17.80;94.70;;;;;;5074957;28;20048;-76
2021/05/30 10:47:52;;;;;;;5.22;3.30;;;18.00;95.90;;;;;;5090576;28;20345;-77
2021/05/30 10:50:20;;;;;;;6.15;3.58;;;17.90;95.70;;;;;;5091901;28;20076;-77
2021/05/30 10:52:47;;;;;;;5.32;3.55;;;17.70;96.40;;;;;;5091745;28;20406;-76
2021/05/30 10:55:19;;;;;;;6.72;3.88;;;17.70;97.50;;;;;;5092291;28;20353;-76
2021/05/30 10:57:47;;;;;;;7.68;4.25;;;17.70;97.80;;;;;;5091722;28;20032;-74
2021/05/30 11:00:19;;;;;;;9.52;4.47;;;17.70;98.30;;;;;;5091988;28;20016;-74
2021/05/30 11:03:06;;;;;;;6.63;3.90;;;17.60;99.60;;;;;;5091467;28;20081;-77
2021/05/30 11:05:39;;;;;;;5.32;3.60;;;17.90;99.90;;;;;;5091413;28;20020;-76
2021/05/30 11:08:05;;;;;;;6.15;3.40;;;17.30;99.90;;;;;;5090630;28;20047;-77
2021/05/30 11:10:32;;;;;;;5.93;3.58;;;17.80;99.90;;;;;;5091899;28;20063;-81
2021/05/30 11:12:59;;;;;;;10.18;4.63;;;17.20;99.90;;;;;;5091841;28;20059;-84
2021/05/30 11:15:27;;;;;;;6.35;3.72;;;17.50;99.90;;;;;;5073324;28;20094;-87
2021/05/30 11:17:58;;;;;;;5.07;3.67;;;17.20;99.90;;;;;;5091056;28;20378;-78
2021/05/30 11:20:45;;;;;;;7.05;4.00;;;17.40;99.90;;;;;;5091809;28;20073;-79
2021/05/30 11:23:19;;;;;;;5.72;4.07;;;17.20;99.90;;;;;;5073412;28;20036;-82
2021/05/30 11:25:53;;;;;;;7.05;4.00;;;17.30;99.90;;;;;;5091140;28;20032;-80
2021/05/30 11:28:26;;;;;;;9.73;5.43;;;17.30;99.90;;;;;;5090472;28;20016;-76
2021/05/30 11:30:54;;;;;;;7.20;4.32;;;17.10;99.90;;;;;;5090606;28;20116;-78
2021/05/30 11:34:04;;;;;;;10.50;7.15;;;17.20;99.90;;;;;;5090172;28;20471;-80
2021/05/30 11:36:36;;;;;;;12.63;7.85;;;17.30;99.90;;;;;;5007458;28;20534;-76
2021/05/30 11:39:13;;;;;;;17.00;10.48;;;17.20;99.90;;;;;;5081764;28;20047;-76
2021/05/30 11:41:52;;;;;;;7.25;4.85;;;17.10;99.90;;;;;;5088012;28;20099;-78
2021/05/30 11:44:22;;;;;;;6.32;4.32;;;17.00;99.90;;;;;;5087729;28;20672;-75
2021/05/30 11:46:48;;;;;;;5.57;3.70;;;16.90;99.90;;;;;;5090489;27;20520;-77
2021/05/30 11:49:29;;;;;;;6.03;3.97;;;16.80;99.90;;;;;;5100621;28;20028;-76
2021/05/30 11:52:13;;;;;;;7.10;4.63;;;16.70;99.90;;;;;;5097162;28;20080;-75
2021/05/30 11:54:44;;;;;;;6.47;4.35;;;16.80;99.90;;;;;;5106560;28;20030;-78
2021/05/30 11:57:16;;;;;;;6.68;4.50;;;17.00;99.90;;;;;;5106102;28;20081;-75
2021/05/30 11:59:45;;;;;;;11.48;4.78;;;16.90;99.90;;;;;;5107823;28;20014;-76
2021/05/30 12:02:28;;;;;;;6.95;4.50;;;17.10;99.90;;;;;;5106407;28;20114;-76
2021/05/30 12:05:02;;;;;;;7.75;4.40;;;17.30;99.90;;;;;;5107073;28;20089;-75
2021/05/30 12:07:34;;;;;;;8.73;4.93;;;17.20;99.90;;;;;;5105632;28;20019;-77
2021/05/30 12:10:01;;;;;;;9.45;5.03;;;17.20;99.90;;;;;;5107707;28;20043;-76
2021/05/30 12:12:39;;;;;;;9.27;3.85;;;17.40;99.90;;;;;;5106493;28;20032;-76
2021/05/30 12:15:29;;;;;;;8.05;4.22;;;17.20;99.90;;;;;;5110743;28;20110;-77
2021/05/30 12:18:04;;;;;;;9.15;4.45;;;17.20;99.90;;;;;;5106159;28;20024;-76
2021/05/30 12:20:35;;;;;;;7.60;4.40;;;17.20;99.90;;;;;;5109019;28;20019;-77
2021/05/30 12:23:15;;;;;;;6.40;4.13;;;17.20;99.90;;;;;;5086624;28;20517;-76
2021/05/30 12:26:03;;;;;;;6.50;3.67;;;17.20;99.90;;;;;;5105882;28;20047;-74
2021/05/30 12:28:33;;;;;;;5.47;3.60;;;17.00;99.90;;;;;;5111337;28;20743;-74
2021/05/30 12:31:14;;;;;;;7.05;3.90;;;17.40;99.90;;;;;;5113266;27;20081;-75
2021/05/30 12:34:18;;;;;;;8.27;4.22;;;17.30;99.90;;;;;;5110226;28;20027;-75
2021/05/30 12:36:45;;;;;;;6.88;3.92;;;17.20;99.90;;;;;;5009282;28;20552;-75
2021/05/30 12:39:27;;;;;;;6.03;3.75;;;17.40;99.90;;;;;;5009813;28;20465;-77
2021/05/30 12:42:10;;;;;;;5.90;3.88;;;17.30;99.90;;;;;;5049344;28;20031;-76
2021/05/30 12:44:55;;;;;;;8.82;4.63;;;17.30;99.90;;;;;;5111442;27;20040;-75
2021/05/30 12:47:24;;;;;;;6.00;3.58;;;17.30;99.90;;;;;;5107602;28;20463;-76
2021/05/30 12:49:54;;;;;;;6.00;3.50;;;17.20;99.90;;;;;;5112807;28;20107;-76
2021/05/30 12:52:20;;;;;;;8.07;3.83;;;17.30;99.90;;;;;;5107192;28;20471;-76
2021/05/30 12:54:59;;;;;;;7.70;3.78;;;17.30;99.90;;;;;;5111973;28;20490;-76
2021/05/30 12:57:40;;;;;;;5.53;3.63;;;17.30;99.90;;;;;;5109891;28;20024;-75
2021/05/30 13:00:12;;;;;;;5.50;3.40;;;17.20;99.30;;;;;;5113141;27;20021;-75
2021/05/30 13:02:54;;;;;;;5.60;3.20;;;17.30;99.90;;;;;;5104014;28;20500;-75